sensor_id;sensor_type;location;lat;lon;timestamp;pressure;altitude;pressure_sealevel;temperature;humidity
41312;BME280;27061;41.648;24.568;2023-02-28T00:00:44;85971.69;;;5.88;75.38
41312;BME280;27061;41.648;24.568;2023-02-28T00:03:12;86133.09;;;7.09;75.71
41312;BME280;27061;41.648;24.568;2023-02-28T00:05:39;86081.97;;;6.55;75.59
41312;BME280;27061;41.648;24.568;2023-02-28T00:08:06;86111.00;;;6.93;75.72
41312;BME280;27061;41.648;24.568;2023-02-28T00:10:34;86036.38;;;6.16;75.73
41312;BME280;27061;41.648;24.568;2023-02-28T00:13:03;85959.78;;;5.56;75.54
41312;BME280;27061;41.648;24.568;2023-02-28T00:15:32;86079.06;;;6.27;76.04
41312;BME280;27061;41.648;24.568;2023-02-28T00:17:59;86196.44;;;7.15;77.04
41312;BME280;27061;41.648;24.568;2023-02-28T00:20:26;86124.59;;;6.54;76.59
41312;BME280;27061;41.648;24.568;2023-02-28T00:22:55;86022.38;;;5.73;77.25
41312;BME280;27061;41.648;24.568;2023-02-28T00:25:24;85999.47;;;5.36;77.83
41312;BME280;27061;41.648;24.568;2023-02-28T00:27:51;85967.88;;;5.33;77.63
41312;BME280;27061;41.648;24.568;2023-02-28T00:30:21;86000.25;;;5.51;77.22
41312;BME280;27061;41.648;24.568;2023-02-28T00:32:49;86137.06;;;6.74;76.96
41312;BME280;27061;41.648;24.568;2023-02-28T00:35:24;86118.44;;;6.60;76.12
41312;BME280;27061;41.648;24.568;2023-02-28T00:37:51;86001.69;;;5.58;76.34
41312;BME280;27061;41.648;24.568;2023-02-28T00:40:18;86008.00;;;5.83;76.31
41312;BME280;27061;41.648;24.568;2023-02-28T00:42:45;85968.63;;;5.42;76.53
41312;BME280;27061;41.648;24.568;2023-02-28T00:45:12;85966.53;;;5.34;76.35
41312;BME280;27061;41.648;24.568;2023-02-28T00:47:40;85952.00;;;5.22;76.55
41312;BME280;27061;41.648;24.568;2023-02-28T00:50:07;86028.72;;;5.90;76.45
41312;BME280;27061;41.648;24.568;2023-02-28T00:52:35;86046.63;;;6.01;75.88
41312;BME280;27061;41.648;24.568;2023-02-28T00:55:03;85982.31;;;5.34;76.63
41312;BME280;27061;41.648;24.568;2023-02-28T00:57:30;85979.56;;;5.34;76.40
41312;BME280;27061;41.648;24.568;2023-02-28T00:59:57;86142.50;;;6.61;76.44
41312;BME280;27061;41.648;24.568;2023-02-28T01:02:24;86130.78;;;6.53;76.08
41312;BME280;27061;41.648;24.568;2023-02-28T01:04:52;86139.69;;;6.45;76.25
41312;BME280;27061;41.648;24.568;2023-02-28T01:07:19;85934.75;;;5.03;75.62
41312;BME280;27061;41.648;24.568;2023-02-28T01:09:46;86011.97;;;5.56;75.31
41312;BME280;27061;41.648;24.568;2023-02-28T01:12:13;86143.91;;;6.63;75.98
41312;BME280;27061;41.648;24.568;2023-02-28T01:14:40;85998.88;;;5.48;76.05
41312;BME280;27061;41.648;24.568;2023-02-28T01:17:08;85982.81;;;5.08;76.57
41312;BME280;27061;41.648;24.568;2023-02-28T01:19:35;86143.72;;;6.32;77.26
41312;BME280;27061;41.648;24.568;2023-02-28T01:22:04;85982.22;;;5.24;76.85
41312;BME280;27061;41.648;24.568;2023-02-28T01:24:32;85983.66;;;5.29;76.24
41312;BME280;27061;41.648;24.568;2023-02-28T01:27:00;86095.94;;;5.83;77.36
41312;BME280;27061;41.648;24.568;2023-02-28T01:29:27;86201.53;;;6.46;77.12
41312;BME280;27061;41.648;24.568;2023-02-28T01:31:54;86007.56;;;5.16;76.90
41312;BME280;27061;41.648;24.568;2023-02-28T01:34:21;86130.56;;;6.18;77.04
41312;BME280;27061;41.648;24.568;2023-02-28T01:36:50;86025.59;;;5.39;77.37
41312;BME280;27061;41.648;24.568;2023-02-28T01:39:18;85988.81;;;4.90;77.10
41312;BME280;27061;41.648;24.568;2023-02-28T01:41:45;86016.50;;;5.21;77.79
41312;BME280;27061;41.648;24.568;2023-02-28T01:47:17;86153.97;;;6.25;78.08
41312;BME280;27061;41.648;24.568;2023-02-28T01:49:44;86161.34;;;5.99;78.21
41312;BME280;27061;41.648;24.568;2023-02-28T01:52:12;86175.16;;;6.07;78.99
41312;BME280;27061;41.648;24.568;2023-02-28T01:54:49;85996.91;;;4.74;79.32
41312;BME280;27061;41.648;24.568;2023-02-28T01:57:20;86182.09;;;6.16;79.51
41312;BME280;27061;41.648;24.568;2023-02-28T02:00:01;86001.03;;;4.77;79.04
41312;BME280;27061;41.648;24.568;2023-02-28T02:02:38;86258.19;;;6.78;78.98
41312;BME280;27061;41.648;24.568;2023-02-28T02:05:11;86280.13;;;6.72;79.45
41312;BME280;27061;41.648;24.568;2023-02-28T02:07:41;86250.53;;;6.66;80.36
41312;BME280;27061;41.648;24.568;2023-02-28T02:10:15;86024.53;;;4.98;79.30
41312;BME280;27061;41.648;24.568;2023-02-28T02:18:50;86170.31;;;6.05;79.23
41312;BME280;27061;41.648;24.568;2023-02-28T02:27:04;86253.94;;;6.63;80.05
41312;BME280;27061;41.648;24.568;2023-02-28T02:42:56;86274.59;;;6.64;79.02
41312;BME280;27061;41.648;24.568;2023-02-28T02:45:28;85986.47;;;4.58;79.49
41312;BME280;27061;41.648;24.568;2023-02-28T02:48:05;86017.28;;;4.57;79.82
41312;BME280;27061;41.648;24.568;2023-02-28T02:50:38;86086.28;;;4.95;80.19
41312;BME280;27061;41.648;24.568;2023-02-28T02:53:07;86044.00;;;4.52;80.92
41312;BME280;27061;41.648;24.568;2023-02-28T02:55:40;86183.56;;;5.48;82.13
41312;BME280;27061;41.648;24.568;2023-02-28T02:58:18;86264.56;;;6.16;81.52
41312;BME280;27061;41.648;24.568;2023-02-28T03:00:52;86189.91;;;5.67;81.31
41312;BME280;27061;41.648;24.568;2023-02-28T03:03:21;86077.81;;;4.73;81.55
41312;BME280;27061;41.648;24.568;2023-02-28T03:05:57;86004.03;;;4.35;81.05
41312;BME280;27061;41.648;24.568;2023-02-28T03:08:26;86177.41;;;5.54;81.34
41312;BME280;27061;41.648;24.568;2023-02-28T03:11:00;86171.88;;;5.48;81.17
41312;BME280;27061;41.648;24.568;2023-02-28T03:22:39;86297.09;;;6.42;82.57
41312;BME280;27061;41.648;24.568;2023-02-28T03:24:50;86050.94;;;4.61;82.96
41312;BME280;27061;41.648;24.568;2023-02-28T03:27:40;86162.81;;;5.35;82.81
41312;BME280;27061;41.648;24.568;2023-02-28T03:35:29;86035.59;;;4.38;82.70
41312;BME280;27061;41.648;24.568;2023-02-28T03:38:34;86295.13;;;6.52;82.19
41312;BME280;27061;41.648;24.568;2023-02-28T03:41:13;86018.38;;;4.29;81.53
41312;BME280;27061;41.648;24.568;2023-02-28T03:43:45;86217.50;;;5.79;82.76
41312;BME280;27061;41.648;24.568;2023-02-28T03:46:18;86041.88;;;4.45;82.32
41312;BME280;27061;41.648;24.568;2023-02-28T03:49:00;86223.72;;;5.82;82.75
41312;BME280;27061;41.648;24.568;2023-02-28T03:51:29;86043.03;;;4.27;82.84
41312;BME280;27061;41.648;24.568;2023-02-28T03:54:02;86197.97;;;5.49;83.41
41312;BME280;27061;41.648;24.568;2023-02-28T03:56:35;86223.44;;;5.56;83.80
41312;BME280;27061;41.648;24.568;2023-02-28T03:59:07;86222.69;;;5.49;84.32
41312;BME280;27061;41.648;24.568;2023-02-28T04:01:48;86199.19;;;5.34;84.40
41312;BME280;27061;41.648;24.568;2023-02-28T04:04:16;86063.56;;;4.26;83.91
41312;BME280;27061;41.648;24.568;2023-02-28T04:06:44;86060.13;;;4.26;84.37
41312;BME280;27061;41.648;24.568;2023-02-28T04:09:13;86218.59;;;5.52;84.32
41312;BME280;27061;41.648;24.568;2023-02-28T04:11:43;86100.94;;;4.58;84.60
41312;BME280;27061;41.648;24.568;2023-02-28T04:14:11;86327.94;;;6.30;84.76
41312;BME280;27061;41.648;24.568;2023-02-28T04:16:40;86209.03;;;5.57;84.63
41312;BME280;27061;41.648;24.568;2023-02-28T04:19:10;86108.66;;;4.71;84.20
41312;BME280;27061;41.648;24.568;2023-02-28T04:21:43;86206.16;;;5.45;85.20
41312;BME280;27061;41.648;24.568;2023-02-28T04:24:13;86056.06;;;4.29;84.77
41312;BME280;27061;41.648;24.568;2023-02-28T04:26:43;86078.84;;;4.41;84.39
41312;BME280;27061;41.648;24.568;2023-02-28T04:29:12;86295.47;;;6.12;85.49
41312;BME280;27061;41.648;24.568;2023-02-28T04:31:40;86202.03;;;5.44;85.07
41312;BME280;27061;41.648;24.568;2023-02-28T04:34:07;86217.31;;;5.59;85.47
41312;BME280;27061;41.648;24.568;2023-02-28T04:36:34;86038.28;;;4.32;85.68
41312;BME280;27061;41.648;24.568;2023-02-28T04:39:02;86216.03;;;5.70;85.60
41312;BME280;27061;41.648;24.568;2023-02-28T04:41:29;86058.91;;;4.39;85.11
41312;BME280;27061;41.648;24.568;2023-02-28T04:43:58;86015.47;;;4.15;85.27
41312;BME280;27061;41.648;24.568;2023-02-28T04:46:25;86014.06;;;4.10;85.27
41312;BME280;27061;41.648;24.568;2023-02-28T04:48:52;86188.28;;;5.42;85.59
41312;BME280;27061;41.648;24.568;2023-02-28T04:51:21;86156.38;;;5.10;85.34
41312;BME280;27061;41.648;24.568;2023-02-28T04:53:48;86295.50;;;6.18;85.81
41312;BME280;27061;41.648;24.568;2023-02-28T04:56:16;86220.06;;;5.61;86.00
41312;BME280;27061;41.648;24.568;2023-02-28T04:58:44;86034.78;;;4.25;85.46
41312;BME280;27061;41.648;24.568;2023-02-28T05:01:22;86085.22;;;4.62;85.56
41312;BME280;27061;41.648;24.568;2023-02-28T05:03:50;86040.84;;;4.18;85.52
41312;BME280;27061;41.648;24.568;2023-02-28T05:06:18;86222.66;;;5.47;85.93
41312;BME280;27061;41.648;24.568;2023-02-28T05:08:47;86084.47;;;4.56;85.98
41312;BME280;27061;41.648;24.568;2023-02-28T05:11:20;86046.53;;;4.36;85.37
41312;BME280;27061;41.648;24.568;2023-02-28T05:13:48;86218.78;;;5.70;85.05
41312;BME280;27061;41.648;24.568;2023-02-28T05:16:16;86220.06;;;5.59;85.75
41312;BME280;27061;41.648;24.568;2023-02-28T05:18:44;86063.03;;;4.38;85.28
41312;BME280;27061;41.648;24.568;2023-02-28T05:21:32;86209.00;;;5.53;86.06
41312;BME280;27061;41.648;24.568;2023-02-28T05:24:06;86077.50;;;4.45;86.03
41312;BME280;27061;41.648;24.568;2023-02-28T05:26:40;86232.97;;;5.48;86.52
41312;BME280;27061;41.648;24.568;2023-02-28T05:29:09;86067.09;;;4.33;86.54
41312;BME280;27061;41.648;24.568;2023-02-28T05:31:38;86251.03;;;5.68;86.63
41312;BME280;27061;41.648;24.568;2023-02-28T05:34:05;86070.50;;;4.31;86.18
41312;BME280;27061;41.648;24.568;2023-02-28T05:36:32;86277.31;;;5.87;87.06
41312;BME280;27061;41.648;24.568;2023-02-28T05:38:59;86249.66;;;5.67;87.19
41312;BME280;27061;41.648;24.568;2023-02-28T05:41:26;86148.63;;;4.91;87.08
41312;BME280;27061;41.648;24.568;2023-02-28T05:43:54;86059.44;;;4.23;87.37
41312;BME280;27061;41.648;24.568;2023-02-28T05:46:21;86091.19;;;4.43;87.45
41312;BME280;27061;41.648;24.568;2023-02-28T05:48:48;86255.09;;;5.63;87.83
41312;BME280;27061;41.648;24.568;2023-02-28T05:51:16;86109.09;;;4.52;88.05
41312;BME280;27061;41.648;24.568;2023-02-28T05:53:44;86257.16;;;5.64;89.75
41312;BME280;27061;41.648;24.568;2023-02-28T05:56:14;86259.88;;;5.62;89.12
41312;BME280;27061;41.648;24.568;2023-02-28T05:58:41;86064.91;;;4.23;89.31
41312;BME280;27061;41.648;24.568;2023-02-28T06:01:36;86117.50;;;4.66;89.97
41312;BME280;27061;41.648;24.568;2023-02-28T06:04:07;86271.13;;;5.86;90.15
41312;BME280;27061;41.648;24.568;2023-02-28T06:06:45;86164.03;;;5.18;89.35
41312;BME280;27061;41.648;24.568;2023-02-28T06:09:13;86358.53;;;6.67;90.55
41312;BME280;27061;41.648;24.568;2023-02-28T06:11:41;86107.91;;;4.65;91.04
41312;BME280;27061;41.648;24.568;2023-02-28T06:14:14;86116.34;;;4.85;91.16
41312;BME280;27061;41.648;24.568;2023-02-28T06:16:41;86130.03;;;4.83;90.93
41312;BME280;27061;41.648;24.568;2023-02-28T06:19:09;86289.38;;;6.22;92.81
41312;BME280;27061;41.648;24.568;2023-02-28T06:21:37;86109.59;;;4.96;94.23
41312;BME280;27061;41.648;24.568;2023-02-28T06:24:04;86274.94;;;6.21;96.02
41312;BME280;27061;41.648;24.568;2023-02-28T06:26:31;86203.63;;;5.65;97.22
41312;BME280;27061;41.648;24.568;2023-02-28T06:28:59;86171.94;;;5.54;97.33
41312;BME280;27061;41.648;24.568;2023-02-28T06:31:27;86169.38;;;5.76;97.97
41312;BME280;27061;41.648;24.568;2023-02-28T06:33:56;86286.94;;;6.63;98.20
41312;BME280;27061;41.648;24.568;2023-02-28T06:36:23;86275.91;;;6.56;97.83
41312;BME280;27061;41.648;24.568;2023-02-28T06:38:50;86141.88;;;5.70;97.20
41312;BME280;27061;41.648;24.568;2023-02-28T06:41:23;86277.38;;;6.72;97.01
41312;BME280;27061;41.648;24.568;2023-02-28T06:43:50;86271.22;;;6.75;97.74
41312;BME280;27061;41.648;24.568;2023-02-28T06:46:17;86107.31;;;5.45;97.81
41312;BME280;27061;41.648;24.568;2023-02-28T06:48:44;86350.66;;;7.19;98.44
41312;BME280;27061;41.648;24.568;2023-02-28T06:51:15;86301.56;;;6.85;97.88
41312;BME280;27061;41.648;24.568;2023-02-28T06:53:42;86201.34;;;6.14;97.48
41312;BME280;27061;41.648;24.568;2023-02-28T06:56:12;86388.09;;;7.63;97.76
41312;BME280;27061;41.648;24.568;2023-02-28T06:58:40;86250.41;;;6.52;97.78
41312;BME280;27061;41.648;24.568;2023-02-28T07:01:07;86280.25;;;6.86;97.30
41312;BME280;27061;41.648;24.568;2023-02-28T07:03:36;86294.84;;;7.13;95.95
41312;BME280;27061;41.648;24.568;2023-02-28T07:06:04;86287.91;;;7.04;95.11
41312;BME280;27061;41.648;24.568;2023-02-28T07:08:33;86169.66;;;6.09;94.95
41312;BME280;27061;41.648;24.568;2023-02-28T07:11:00;86117.34;;;5.95;94.60
41312;BME280;27061;41.648;24.568;2023-02-28T07:13:27;86114.59;;;5.97;94.32
41312;BME280;27061;41.648;24.568;2023-02-28T07:15:59;86359.13;;;7.52;93.33
41312;BME280;27061;41.648;24.568;2023-02-28T07:18:27;86136.47;;;5.82;94.54
41312;BME280;27061;41.648;24.568;2023-02-28T07:20:54;86153.88;;;6.09;94.43
41312;BME280;27061;41.648;24.568;2023-02-28T07:23:22;86140.72;;;5.96;94.86
41312;BME280;27061;41.648;24.568;2023-02-28T07:25:50;86285.31;;;7.30;94.94
41312;BME280;27061;41.648;24.568;2023-02-28T07:28:18;86125.72;;;6.15;94.35
41312;BME280;27061;41.648;24.568;2023-02-28T07:30:45;86287.44;;;7.42;95.83
41312;BME280;27061;41.648;24.568;2023-02-28T07:33:12;86289.44;;;7.27;95.63
41312;BME280;27061;41.648;24.568;2023-02-28T07:35:39;86261.19;;;7.20;94.65
41312;BME280;27061;41.648;24.568;2023-02-28T07:38:06;86124.44;;;6.28;93.84
41312;BME280;27061;41.648;24.568;2023-02-28T07:40:35;86256.41;;;7.33;94.46
41312;BME280;27061;41.648;24.568;2023-02-28T07:43:02;86253.03;;;7.45;94.10
41312;BME280;27061;41.648;24.568;2023-02-28T07:45:31;86298.63;;;7.80;93.28
41312;BME280;27061;41.648;24.568;2023-02-28T07:48:01;86388.47;;;8.40;93.59
41312;BME280;27061;41.648;24.568;2023-02-28T07:50:28;86131.47;;;6.53;94.71
41312;BME280;27061;41.648;24.568;2023-02-28T07:52:58;86140.44;;;6.56;93.89
41312;BME280;27061;41.648;24.568;2023-02-28T07:55:26;86143.94;;;6.71;93.18
41312;BME280;27061;41.648;24.568;2023-02-28T07:57:53;86146.03;;;6.74;90.21
41312;BME280;27061;41.648;24.568;2023-02-28T08:00:21;86213.06;;;7.38;90.86
41312;BME280;27061;41.648;24.568;2023-02-28T08:02:48;86124.59;;;6.58;92.63
41312;BME280;27061;41.648;24.568;2023-02-28T08:05:15;86200.66;;;7.39;93.15
41312;BME280;27061;41.648;24.568;2023-02-28T08:07:46;86160.63;;;7.07;90.93
41312;BME280;27061;41.648;24.568;2023-02-28T08:10:14;86300.84;;;8.26;86.75
41312;BME280;27061;41.648;24.568;2023-02-28T08:12:41;86383.06;;;8.85;86.72
41312;BME280;27061;41.648;24.568;2023-02-28T08:15:09;86269.78;;;8.12;86.10
41312;BME280;27061;41.648;24.568;2023-02-28T08:17:36;86299.44;;;8.13;85.38
41312;BME280;27061;41.648;24.568;2023-02-28T08:20:03;86230.38;;;7.75;85.38
41312;BME280;27061;41.648;24.568;2023-02-28T08:22:31;86284.97;;;8.27;83.23
41312;BME280;27061;41.648;24.568;2023-02-28T08:24:58;86297.44;;;8.48;83.77
41312;BME280;27061;41.648;24.568;2023-02-28T08:27:25;86360.97;;;8.91;84.12
41312;BME280;27061;41.648;24.568;2023-02-28T08:29:52;86155.94;;;7.54;84.83
41312;BME280;27061;41.648;24.568;2023-02-28T08:32:19;86178.03;;;7.85;84.33
41312;BME280;27061;41.648;24.568;2023-02-28T08:34:55;86135.94;;;7.46;84.60
41312;BME280;27061;41.648;24.568;2023-02-28T08:37:23;86372.06;;;9.35;82.02
41312;BME280;27061;41.648;24.568;2023-02-28T08:39:50;86323.03;;;8.95;79.15
41312;BME280;27061;41.648;24.568;2023-02-28T08:42:21;86374.13;;;9.47;81.83
41312;BME280;27061;41.648;24.568;2023-02-28T08:44:48;86231.22;;;8.48;83.55
41312;BME280;27061;41.648;24.568;2023-02-28T08:47:15;86150.47;;;7.79;84.57
41312;BME280;27061;41.648;24.568;2023-02-28T08:49:42;86294.03;;;8.88;80.70
41312;BME280;27061;41.648;24.568;2023-02-28T08:52:09;86403.84;;;9.40;80.64
41312;BME280;27061;41.648;24.568;2023-02-28T08:54:36;86289.19;;;8.74;80.57
41312;BME280;27061;41.648;24.568;2023-02-28T08:57:03;86243.66;;;8.57;84.38
41312;BME280;27061;41.648;24.568;2023-02-28T08:59:31;86155.34;;;8.25;86.13
41312;BME280;27061;41.648;24.568;2023-02-28T09:01:58;86351.25;;;9.75;85.00
41312;BME280;27061;41.648;24.568;2023-02-28T09:04:25;86375.47;;;9.80;78.07
41312;BME280;27061;41.648;24.568;2023-02-28T09:06:52;86394.09;;;9.92;79.42
41312;BME280;27061;41.648;24.568;2023-02-28T09:09:19;86290.53;;;9.36;79.10
41312;BME280;27061;41.648;24.568;2023-02-28T09:11:46;86149.84;;;8.37;78.21
41312;BME280;27061;41.648;24.568;2023-02-28T09:14:13;86272.56;;;9.39;73.48
41312;BME280;27061;41.648;24.568;2023-02-28T09:16:40;86380.19;;;10.35;73.68
41312;BME280;27061;41.648;24.568;2023-02-28T09:19:11;86200.81;;;9.07;71.24
41312;BME280;27061;41.648;24.568;2023-02-28T09:21:38;86280.81;;;9.64;71.31
41312;BME280;27061;41.648;24.568;2023-02-28T09:24:06;86166.34;;;8.81;74.34
41312;BME280;27061;41.648;24.568;2023-02-28T09:26:34;86267.69;;;9.54;74.22
41312;BME280;27061;41.648;24.568;2023-02-28T09:29:13;86127.75;;;8.49;74.90
41312;BME280;27061;41.648;24.568;2023-02-28T09:31:41;86120.19;;;8.43;73.31
41312;BME280;27061;41.648;24.568;2023-02-28T09:34:08;86267.00;;;9.62;76.25
41312;BME280;27061;41.648;24.568;2023-02-28T09:36:35;86094.66;;;8.45;75.32
41312;BME280;27061;41.648;24.568;2023-02-28T09:39:12;86264.13;;;9.86;74.81
41312;BME280;27061;41.648;24.568;2023-02-28T09:41:45;86138.72;;;8.86;72.84
41312;BME280;27061;41.648;24.568;2023-02-28T09:47:04;86253.06;;;9.90;71.92
41312;BME280;27061;41.648;24.568;2023-02-28T09:49:37;86346.13;;;10.69;68.91
41312;BME280;27061;41.648;24.568;2023-02-28T09:52:14;86248.88;;;10.03;70.76
41312;BME280;27061;41.648;24.568;2023-02-28T09:54:42;86332.34;;;10.56;71.94
41312;BME280;27061;41.648;24.568;2023-02-28T09:57:24;86343.97;;;10.79;69.14
41312;BME280;27061;41.648;24.568;2023-02-28T10:00:07;86344.00;;;10.73;68.34
41312;BME280;27061;41.648;24.568;2023-02-28T10:05:25;86104.16;;;9.05;71.36
41312;BME280;27061;41.648;24.568;2023-02-28T10:08:08;86331.53;;;10.76;66.73
41312;BME280;27061;41.648;24.568;2023-02-28T10:10:42;86256.41;;;10.23;69.19
41312;BME280;27061;41.648;24.568;2023-02-28T10:15:45;86098.53;;;9.31;68.42
41312;BME280;27061;41.648;24.568;2023-02-28T10:18:18;86143.25;;;9.70;66.65
41312;BME280;27061;41.648;24.568;2023-02-28T10:20:47;86078.53;;;9.23;67.47
41312;BME280;27061;41.648;24.568;2023-02-28T10:23:34;86189.41;;;9.98;67.35
41312;BME280;27061;41.648;24.568;2023-02-28T10:26:11;86329.25;;;11.07;65.41
41312;BME280;27061;41.648;24.568;2023-02-28T10:28:39;86316.84;;;10.98;67.95
41312;BME280;27061;41.648;24.568;2023-02-28T10:31:11;86314.78;;;10.96;69.28
41312;BME280;27061;41.648;24.568;2023-02-28T10:33:41;86211.44;;;10.20;68.50
41312;BME280;27061;41.648;24.568;2023-02-28T10:36:15;86205.91;;;10.16;70.42
41312;BME280;27061;41.648;24.568;2023-02-28T10:38:44;86312.63;;;11.07;70.63
41312;BME280;27061;41.648;24.568;2023-02-28T10:41:18;86144.03;;;9.48;69.14
41312;BME280;27061;41.648;24.568;2023-02-28T10:44:13;86227.97;;;10.37;70.52
41312;BME280;27061;41.648;24.568;2023-02-28T10:46:41;86254.19;;;10.44;69.95
41312;BME280;27061;41.648;24.568;2023-02-28T10:49:22;86137.09;;;9.55;70.78
41312;BME280;27061;41.648;24.568;2023-02-28T10:51:59;86208.75;;;10.02;72.12
41312;BME280;27061;41.648;24.568;2023-02-28T10:57:28;86298.84;;;10.97;73.07
41312;BME280;27061;41.648;24.568;2023-02-28T11:00:14;86112.84;;;9.64;71.80
41312;BME280;27061;41.648;24.568;2023-02-28T11:02:42;86131.41;;;9.86;74.90
41312;BME280;27061;41.648;24.568;2023-02-28T11:05:31;86276.06;;;10.86;70.75
41312;BME280;27061;41.648;24.568;2023-02-28T11:08:11;86209.91;;;10.44;71.81
41312;BME280;27061;41.648;24.568;2023-02-28T11:10:39;86201.56;;;10.50;71.07
41312;BME280;27061;41.648;24.568;2023-02-28T11:13:19;86191.84;;;10.53;73.01
41312;BME280;27061;41.648;24.568;2023-02-28T11:15:54;86081.69;;;9.78;74.72
41312;BME280;27061;41.648;24.568;2023-02-28T11:18:29;86228.91;;;10.98;73.31
41312;BME280;27061;41.648;24.568;2023-02-28T11:20:59;86213.16;;;10.75;72.04
41312;BME280;27061;41.648;24.568;2023-02-28T11:23:30;86176.69;;;10.46;71.45
41312;BME280;27061;41.648;24.568;2023-02-28T11:26:01;86048.66;;;9.53;71.93
41312;BME280;27061;41.648;24.568;2023-02-28T11:28:34;86248.38;;;10.88;73.90
41312;BME280;27061;41.648;24.568;2023-02-28T11:36:21;86188.41;;;10.52;75.61
41312;BME280;27061;41.648;24.568;2023-02-28T11:38:53;86226.22;;;10.84;74.87
41312;BME280;27061;41.648;24.568;2023-02-28T11:44:23;86284.03;;;11.31;74.74
41312;BME280;27061;41.648;24.568;2023-02-28T11:46:58;86140.88;;;10.21;72.20
41312;BME280;27061;41.648;24.568;2023-02-28T11:52:25;86267.53;;;11.15;70.70
41312;BME280;27061;41.648;24.568;2023-02-28T11:55:14;86273.09;;;11.13;71.37
41312;BME280;27061;41.648;24.568;2023-02-28T12:03:31;86196.00;;;10.54;63.91
41312;BME280;27061;41.648;24.568;2023-02-28T12:09:04;86272.47;;;11.06;70.15
41312;BME280;27061;41.648;24.568;2023-02-28T12:11:50;86246.31;;;10.81;72.30
41312;BME280;27061;41.648;24.568;2023-02-28T12:19:52;86245.78;;;10.62;76.38
41312;BME280;27061;41.648;24.568;2023-02-28T12:25:10;86275.94;;;11.05;75.75
41312;BME280;27061;41.648;24.568;2023-02-28T12:27:48;86191.91;;;10.45;75.59
41312;BME280;27061;41.648;24.568;2023-02-28T12:30:25;86277.31;;;11.04;74.92
41312;BME280;27061;41.648;24.568;2023-02-28T12:33:08;86281.47;;;11.05;75.58
41312;BME280;27061;41.648;24.568;2023-02-28T12:35:55;86271.22;;;10.91;75.51
41312;BME280;27061;41.648;24.568;2023-02-28T12:38:35;86186.56;;;10.18;76.14
41312;BME280;27061;41.648;24.568;2023-02-28T12:41:17;86278.81;;;10.90;76.08
41312;BME280;27061;41.648;24.568;2023-02-28T12:43:52;86189.28;;;10.24;76.21
41312;BME280;27061;41.648;24.568;2023-02-28T12:46:38;86276.06;;;10.86;77.75
41312;BME280;27061;41.648;24.568;2023-02-28T12:49:12;86229.94;;;10.50;78.30
41312;BME280;27061;41.648;24.568;2023-02-28T12:51:43;86101.25;;;9.41;78.41
41312;BME280;27061;41.648;24.568;2023-02-28T12:59:56;86279.00;;;10.62;78.39
41312;BME280;27061;41.648;24.568;2023-02-28T13:03:47;86267.97;;;10.54;77.96
41312;BME280;27061;41.648;24.568;2023-02-28T13:09:02;86270.69;;;10.60;77.02
41312;BME280;27061;41.648;24.568;2023-02-28T13:11:43;86181.81;;;9.99;76.18
41312;BME280;27061;41.648;24.568;2023-02-28T13:14:36;86140.50;;;9.64;76.54
41312;BME280;27061;41.648;24.568;2023-02-28T13:19:36;86190.78;;;10.03;78.26
41312;BME280;27061;41.648;24.568;2023-02-28T13:22:04;86161.84;;;9.82;79.05
41312;BME280;27061;41.648;24.568;2023-02-28T13:24:54;86015.88;;;8.80;79.20
41312;BME280;27061;41.648;24.568;2023-02-28T13:27:34;86182.53;;;9.95;78.92
41312;BME280;27061;41.648;24.568;2023-02-28T13:33:27;86239.00;;;10.39;79.22
41312;BME280;27061;41.648;24.568;2023-02-28T13:38:51;86179.75;;;9.95;80.61
41312;BME280;27061;41.648;24.568;2023-02-28T13:44:19;86255.50;;;10.59;80.96
41312;BME280;27061;41.648;24.568;2023-02-28T13:52:14;86250.00;;;10.53;78.99
41312;BME280;27061;41.648;24.568;2023-02-28T13:57:48;86254.75;;;10.64;79.63
41312;BME280;27061;41.648;24.568;2023-02-28T14:05:38;86241.75;;;10.39;80.25
41312;BME280;27061;41.648;24.568;2023-02-28T14:08:10;86250.63;;;10.59;80.53
41312;BME280;27061;41.648;24.568;2023-02-28T14:10:45;86232.81;;;10.34;80.56
41312;BME280;27061;41.648;24.568;2023-02-28T14:16:05;86194.13;;;10.22;78.45
41312;BME280;27061;41.648;24.568;2023-02-28T14:18:35;86106.00;;;9.55;78.76
41312;BME280;27061;41.648;24.568;2023-02-28T14:32:29;86161.88;;;9.78;78.23
41312;BME280;27061;41.648;24.568;2023-02-28T14:35:17;86228.00;;;10.28;77.08
41312;BME280;27061;41.648;24.568;2023-02-28T14:37:47;86147.38;;;9.73;75.76
41312;BME280;27061;41.648;24.568;2023-02-28T14:40:26;86118.50;;;9.44;75.55
41312;BME280;27061;41.648;24.568;2023-02-28T14:43:05;86232.81;;;10.36;75.92
41312;BME280;27061;41.648;24.568;2023-02-28T14:45:35;86010.44;;;8.60;75.65
41312;BME280;27061;41.648;24.568;2023-02-28T14:48:05;86112.31;;;9.37;77.27
41312;BME280;27061;41.648;24.568;2023-02-28T14:50:37;86193.56;;;9.99;78.76
41312;BME280;27061;41.648;24.568;2023-02-28T14:53:06;86248.81;;;10.15;79.86
41312;BME280;27061;41.648;24.568;2023-02-28T14:55:44;86229.44;;;10.13;80.47
41312;BME280;27061;41.648;24.568;2023-02-28T15:00:52;86128.91;;;9.33;80.53
41312;BME280;27061;41.648;24.568;2023-02-28T15:03:24;86246.72;;;10.22;80.79
41312;BME280;27061;41.648;24.568;2023-02-28T15:06:03;86251.56;;;10.23;80.51
41312;BME280;27061;41.648;24.568;2023-02-28T15:08:32;86249.47;;;10.22;79.89
41312;BME280;27061;41.648;24.568;2023-02-28T15:11:18;86126.19;;;9.23;80.35
41312;BME280;27061;41.648;24.568;2023-02-28T15:13:48;86265.38;;;10.17;80.90
41312;BME280;27061;41.648;24.568;2023-02-28T15:16:20;86242.69;;;9.93;81.28
41312;BME280;27061;41.648;24.568;2023-02-28T15:19:04;86198.56;;;9.64;81.39
41312;BME280;27061;41.648;24.568;2023-02-28T15:21:38;86102.84;;;8.88;81.19
41312;BME280;27061;41.648;24.568;2023-02-28T15:26:56;86179.25;;;9.54;81.54
41312;BME280;27061;41.648;24.568;2023-02-28T15:29:27;86197.91;;;9.53;82.46
41312;BME280;27061;41.648;24.568;2023-02-28T15:32:05;86141.38;;;9.24;81.53
41312;BME280;27061;41.648;24.568;2023-02-28T15:34:41;86224.72;;;9.85;82.73